sensor_id;sensor_type;location;lat;lon;timestamp;P1;durP1;ratioP1;P2;durP2;ratioP2
34639;SDS011;22600;48.186;11.526;2022-09-09T18:55:07;6.78;;;0.90;;
34639;SDS011;22600;48.186;11.526;2022-09-09T18:57:33;3.50;;;0.90;;
34639;SDS011;22600;48.186;11.526;2022-09-09T18:59:59;3.33;;;1.05;;
34639;SDS011;22600;48.186;11.526;2022-09-09T19:02:25;5.88;;;1.20;;
34639;SDS011;22600;48.186;11.526;2022-09-09T19:04:51;3.33;;;1.30;;
34639;SDS011;22600;48.186;11.526;2022-09-09T19:07:17;5.75;;;1.60;;
34639;SDS011;22600;48.186;11.526;2022-09-09T19:09:43;7.13;;;1.65;;
34639;SDS011;22600;48.186;11.526;2022-09-09T19:12:09;4.43;;;1.90;;
34639;SDS011;22600;48.186;11.526;2022-09-09T19:14:35;3.00;;;1.70;;
34639;SDS011;22600;48.186;11.526;2022-09-09T19:17:01;4.32;;;1.60;;
34639;SDS011;22600;48.186;11.526;2022-09-09T19:19:29;2.70;;;1.67;;
34639;SDS011;22600;48.186;11.526;2022-09-09T19:21:56;5.18;;;1.60;;
34639;SDS011;22600;48.186;11.526;2022-09-09T19:24:24;4.78;;;1.52;;
34639;SDS011;22600;48.186;11.526;2022-09-09T19:26:52;3.40;;;1.52;;
34639;SDS011;22600;48.186;11.526;2022-09-09T19:29:22;4.03;;;1.25;;
34639;SDS011;22600;48.186;11.526;2022-09-09T19:31:50;4.90;;;1.50;;
34639;SDS011;22600;48.186;11.526;2022-09-09T19:34:17;3.75;;;1.40;;
34639;SDS011;22600;48.186;11.526;2022-09-09T19:36:44;5.10;;;1.60;;
34639;SDS011;22600;48.186;11.526;2022-09-09T19:39:12;4.35;;;1.40;;
34639;SDS011;22600;48.186;11.526;2022-09-09T19:41:38;3.83;;;1.45;;
34639;SDS011;22600;48.186;11.526;2022-09-09T19:44:05;5.85;;;1.30;;
34639;SDS011;22600;48.186;11.526;2022-09-09T19:46:34;4.90;;;1.45;;
34639;SDS011;22600;48.186;11.526;2022-09-09T19:49:01;2.58;;;1.20;;
34639;SDS011;22600;48.186;11.526;2022-09-09T19:51:28;3.22;;;1.45;;
34639;SDS011;22600;48.186;11.526;2022-09-09T19:54:00;2.28;;;1.30;;
34639;SDS011;22600;48.186;11.526;2022-09-09T19:56:27;2.10;;;1.20;;
34639;SDS011;22600;48.186;11.526;2022-09-09T19:58:55;4.55;;;1.50;;
34639;SDS011;22600;48.186;11.526;2022-09-09T20:01:22;2.33;;;1.27;;
34639;SDS011;22600;48.186;11.526;2022-09-09T20:03:50;4.20;;;1.48;;
34639;SDS011;22600;48.186;11.526;2022-09-09T20:06:19;2.97;;;1.38;;
34639;SDS011;22600;48.186;11.526;2022-09-09T20:08:47;3.05;;;1.35;;
34639;SDS011;22600;48.186;11.526;2022-09-09T20:11:14;2.35;;;1.42;;
34639;SDS011;22600;48.186;11.526;2022-09-09T20:13:40;2.45;;;1.30;;
34639;SDS011;22600;48.186;11.526;2022-09-09T20:16:16;2.80;;;1.58;;
34639;SDS011;22600;48.186;11.526;2022-09-09T20:18:48;2.63;;;1.40;;
34639;SDS011;22600;48.186;11.526;2022-09-09T20:21:26;3.83;;;1.40;;
34639;SDS011;22600;48.186;11.526;2022-09-09T20:23:55;2.35;;;1.20;;
34639;SDS011;22600;48.186;11.526;2022-09-09T20:26:21;1.80;;;1.25;;
34639;SDS011;22600;48.186;11.526;2022-09-09T20:28:50;2.70;;;1.58;;
34639;SDS011;22600;48.186;11.526;2022-09-09T20:31:18;3.72;;;1.83;;
34639;SDS011;22600;48.186;11.526;2022-09-09T20:33:46;3.78;;;1.80;;
34639;SDS011;22600;48.186;11.526;2022-09-09T20:36:19;2.50;;;1.52;;
34639;SDS011;22600;48.186;11.526;2022-09-09T20:38:50;3.97;;;1.80;;
34639;SDS011;22600;48.186;11.526;2022-09-09T20:41:18;3.60;;;1.90;;
34639;SDS011;22600;48.186;11.526;2022-09-09T20:46:17;4.55;;;1.90;;
34639;SDS011;22600;48.186;11.526;2022-09-09T20:48:47;4.20;;;2.05;;
34639;SDS011;22600;48.186;11.526;2022-09-09T20:51:15;4.57;;;2.00;;
34639;SDS011;22600;48.186;11.526;2022-09-09T20:53:41;4.53;;;2.05;;
34639;SDS011;22600;48.186;11.526;2022-09-09T20:56:08;6.25;;;2.00;;
34639;SDS011;22600;48.186;11.526;2022-09-09T20:58:34;7.07;;;2.28;;
34639;SDS011;22600;48.186;11.526;2022-09-09T21:01:01;3.95;;;2.30;;
34639;SDS011;22600;48.186;11.526;2022-09-09T21:03:28;5.00;;;2.25;;
34639;SDS011;22600;48.186;11.526;2022-09-09T21:05:57;5.90;;;2.13;;
34639;SDS011;22600;48.186;11.526;2022-09-09T21:08:26;5.05;;;2.10;;
34639;SDS011;22600;48.186;11.526;2022-09-09T21:10:54;6.53;;;2.30;;
34639;SDS011;22600;48.186;11.526;2022-09-09T21:13:20;4.32;;;1.98;;
34639;SDS011;22600;48.186;11.526;2022-09-09T21:15:48;4.93;;;2.30;;
34639;SDS011;22600;48.186;11.526;2022-09-09T21:18:14;4.70;;;2.35;;
34639;SDS011;22600;48.186;11.526;2022-09-09T21:20:41;3.60;;;2.20;;
34639;SDS011;22600;48.186;11.526;2022-09-09T21:23:07;4.13;;;2.13;;
34639;SDS011;22600;48.186;11.526;2022-09-09T21:25:34;4.90;;;2.30;;
34639;SDS011;22600;48.186;11.526;2022-09-09T21:28:00;6.40;;;2.50;;
34639;SDS011;22600;48.186;11.526;2022-09-09T21:30:27;3.20;;;2.13;;
34639;SDS011;22600;48.186;11.526;2022-09-09T21:32:53;5.22;;;2.25;;
34639;SDS011;22600;48.186;11.526;2022-09-09T21:35:19;4.07;;;2.30;;
34639;SDS011;22600;48.186;11.526;2022-09-09T21:37:45;3.58;;;2.13;;
34639;SDS011;22600;48.186;11.526;2022-09-09T21:40:10;4.72;;;2.33;;
34639;SDS011;22600;48.186;11.526;2022-09-09T21:42:36;9.20;;;2.15;;
34639;SDS011;22600;48.186;11.526;2022-09-09T21:45:03;4.53;;;2.35;;
34639;SDS011;22600;48.186;11.526;2022-09-09T21:47:29;8.13;;;2.40;;
34639;SDS011;22600;48.186;11.526;2022-09-09T21:49:55;11.18;;;2.30;;
34639;SDS011;22600;48.186;11.526;2022-09-09T21:52:20;6.38;;;1.90;;
34639;SDS011;22600;48.186;11.526;2022-09-09T21:54:46;4.38;;;2.20;;
34639;SDS011;22600;48.186;11.526;2022-09-09T21:57:11;8.63;;;2.40;;
34639;SDS011;22600;48.186;11.526;2022-09-09T21:59:38;5.88;;;2.25;;
34639;SDS011;22600;48.186;11.526;2022-09-09T22:02:04;4.43;;;1.90;;
34639;SDS011;22600;48.186;11.526;2022-09-09T22:04:30;4.78;;;2.10;;
34639;SDS011;22600;48.186;11.526;2022-09-09T22:06:56;4.68;;;1.80;;
34639;SDS011;22600;48.186;11.526;2022-09-09T22:09:21;4.30;;;2.15;;
34639;SDS011;22600;48.186;11.526;2022-09-09T22:11:47;4.13;;;1.83;;
34639;SDS011;22600;48.186;11.526;2022-09-09T22:14:13;3.83;;;1.85;;
34639;SDS011;22600;48.186;11.526;2022-09-09T22:16:40;4.95;;;2.00;;
34639;SDS011;22600;48.186;11.526;2022-09-09T22:19:05;5.32;;;1.90;;
34639;SDS011;22600;48.186;11.526;2022-09-09T22:21:31;3.25;;;1.65;;
34639;SDS011;22600;48.186;11.526;2022-09-09T22:24:00;2.50;;;1.70;;
34639;SDS011;22600;48.186;11.526;2022-09-09T22:26:30;5.57;;;1.70;;
34639;SDS011;22600;48.186;11.526;2022-09-09T22:28:57;2.90;;;1.70;;
34639;SDS011;22600;48.186;11.526;2022-09-09T22:31:23;3.65;;;1.65;;
34639;SDS011;22600;48.186;11.526;2022-09-09T22:33:49;2.10;;;1.52;;
34639;SDS011;22600;48.186;11.526;2022-09-09T22:36:19;4.70;;;1.90;;
34639;SDS011;22600;48.186;11.526;2022-09-09T22:38:45;5.93;;;1.80;;
34639;SDS011;22600;48.186;11.526;2022-09-09T22:41:11;2.55;;;1.70;;
34639;SDS011;22600;48.186;11.526;2022-09-09T22:43:40;3.53;;;1.70;;
34639;SDS011;22600;48.186;11.526;2022-09-09T22:46:06;4.93;;;1.90;;
34639;SDS011;22600;48.186;11.526;2022-09-09T22:48:32;6.05;;;2.35;;
34639;SDS011;22600;48.186;11.526;2022-09-09T22:51:03;3.90;;;1.88;;
34639;SDS011;22600;48.186;11.526;2022-09-09T22:53:34;4.60;;;2.67;;
34639;SDS011;22600;48.186;11.526;2022-09-09T22:56:01;5.88;;;2.47;;
34639;SDS011;22600;48.186;11.526;2022-09-09T22:58:28;5.40;;;2.80;;
34639;SDS011;22600;48.186;11.526;2022-09-09T23:00:55;5.65;;;2.70;;
34639;SDS011;22600;48.186;11.526;2022-09-09T23:03:31;4.43;;;2.65;;
34639;SDS011;22600;48.186;11.526;2022-09-09T23:05:59;3.90;;;2.65;;
34639;SDS011;22600;48.186;11.526;2022-09-09T23:08:28;4.63;;;2.25;;
34639;SDS011;22600;48.186;11.526;2022-09-09T23:11:04;5.80;;;2.50;;
34639;SDS011;22600;48.186;11.526;2022-09-09T23:13:35;3.72;;;2.35;;
34639;SDS011;22600;48.186;11.526;2022-09-09T23:16:14;3.25;;;2.25;;
34639;SDS011;22600;48.186;11.526;2022-09-09T23:18:41;4.00;;;2.28;;
34639;SDS011;22600;48.186;11.526;2022-09-09T23:21:08;4.38;;;2.20;;
34639;SDS011;22600;48.186;11.526;2022-09-09T23:23:35;5.40;;;2.30;;
34639;SDS011;22600;48.186;11.526;2022-09-09T23:26:03;4.20;;;2.17;;
34639;SDS011;22600;48.186;11.526;2022-09-09T23:28:33;3.25;;;1.90;;
34639;SDS011;22600;48.186;11.526;2022-09-09T23:31:00;2.45;;;1.90;;
34639;SDS011;22600;48.186;11.526;2022-09-09T23:33:26;5.30;;;2.25;;
34639;SDS011;22600;48.186;11.526;2022-09-09T23:35:59;2.67;;;1.90;;
34639;SDS011;22600;48.186;11.526;2022-09-09T23:38:26;5.32;;;1.92;;
34639;SDS011;22600;48.186;11.526;2022-09-09T23:40:53;3.97;;;2.00;;
34639;SDS011;22600;48.186;11.526;2022-09-09T23:43:19;4.13;;;2.03;;
34639;SDS011;22600;48.186;11.526;2022-09-09T23:45:51;4.57;;;2.17;;
34639;SDS011;22600;48.186;11.526;2022-09-09T23:48:17;3.38;;;1.83;;
34639;SDS011;22600;48.186;11.526;2022-09-09T23:50:43;4.53;;;1.80;;
34639;SDS011;22600;48.186;11.526;2022-09-09T23:53:09;2.00;;;1.50;;
34639;SDS011;22600;48.186;11.526;2022-09-09T23:55:39;3.15;;;1.77;;
34639;SDS011;22600;48.186;11.526;2022-09-09T23:58:05;4.35;;;1.77;;
